sensor_id;sensor_type;location;lat;lon;timestamp;temperature;humidity
18577;DHT22;9418;52.694;13.294;2023-03-24T00:00:45;9.30;99.90
18577;DHT22;9418;52.694;13.294;2023-03-24T00:03:12;9.30;99.90
18577;DHT22;9418;52.694;13.294;2023-03-24T00:05:41;9.20;99.90
18577;DHT22;9418;52.694;13.294;2023-03-24T00:08:08;9.20;99.90
18577;DHT22;9418;52.694;13.294;2023-03-24T00:10:35;9.10;99.90
18577;DHT22;9418;52.694;13.294;2023-03-24T00:13:03;9.10;99.90
18577;DHT22;9418;52.694;13.294;2023-03-24T00:15:30;9.10;99.90
18577;DHT22;9418;52.694;13.294;2023-03-24T00:17:58;9.10;99.90
18577;DHT22;9418;52.694;13.294;2023-03-24T00:20:25;9.10;99.90
18577;DHT22;9418;52.694;13.294;2023-03-24T00:22:54;9.10;99.90
18577;DHT22;9418;52.694;13.294;2023-03-24T00:25:25;9.00;99.90
18577;DHT22;9418;52.694;13.294;2023-03-24T00:27:53;9.00;99.90
18577;DHT22;9418;52.694;13.294;2023-03-24T00:30:23;8.90;99.90
18577;DHT22;9418;52.694;13.294;2023-03-24T00:32:50;8.90;99.90
18577;DHT22;9418;52.694;13.294;2023-03-24T00:35:18;8.90;99.90
18577;DHT22;9418;52.694;13.294;2023-03-24T00:37:45;8.90;99.90
18577;DHT22;9418;52.694;13.294;2023-03-24T00:40:14;8.80;99.90
18577;DHT22;9418;52.694;13.294;2023-03-24T00:42:42;8.80;99.90
18577;DHT22;9418;52.694;13.294;2023-03-24T00:45:11;8.80;99.90
18577;DHT22;9418;52.694;13.294;2023-03-24T00:47:39;8.80;99.90
18577;DHT22;9418;52.694;13.294;2023-03-24T00:50:08;8.70;99.90
18577;DHT22;9418;52.694;13.294;2023-03-24T00:52:36;8.80;99.90
18577;DHT22;9418;52.694;13.294;2023-03-24T00:55:09;8.80;99.90
18577;DHT22;9418;52.694;13.294;2023-03-24T00:57:38;8.80;99.90
18577;DHT22;9418;52.694;13.294;2023-03-24T01:00:07;8.80;99.90
18577;DHT22;9418;52.694;13.294;2023-03-24T01:02:40;8.90;99.90
18577;DHT22;9418;52.694;13.294;2023-03-24T01:05:08;9.00;99.90
18577;DHT22;9418;52.694;13.294;2023-03-24T01:07:34;9.10;99.90
18577;DHT22;9418;52.694;13.294;2023-03-24T01:10:01;9.20;99.90
18577;DHT22;9418;52.694;13.294;2023-03-24T01:12:31;9.30;99.90
18577;DHT22;9418;52.694;13.294;2023-03-24T01:14:59;9.40;99.90
18577;DHT22;9418;52.694;13.294;2023-03-24T01:17:27;9.50;99.90
18577;DHT22;9418;52.694;13.294;2023-03-24T01:19:55;9.60;99.90
18577;DHT22;9418;52.694;13.294;2023-03-24T01:22:26;9.60;99.90
18577;DHT22;9418;52.694;13.294;2023-03-24T01:24:53;9.60;99.90
18577;DHT22;9418;52.694;13.294;2023-03-24T01:27:20;9.70;99.90
18577;DHT22;9418;52.694;13.294;2023-03-24T01:29:47;9.70;99.90
18577;DHT22;9418;52.694;13.294;2023-03-24T01:32:14;9.70;99.90
18577;DHT22;9418;52.694;13.294;2023-03-24T01:34:40;9.80;99.90
18577;DHT22;9418;52.694;13.294;2023-03-24T01:37:08;9.80;99.90
18577;DHT22;9418;52.694;13.294;2023-03-24T01:39:35;9.80;99.90
18577;DHT22;9418;52.694;13.294;2023-03-24T01:42:02;9.80;99.00
18577;DHT22;9418;52.694;13.294;2023-03-24T01:44:31;9.90;84.50
18577;DHT22;9418;52.694;13.294;2023-03-24T01:46:59;9.90;22.00
18577;DHT22;9418;52.694;13.294;2023-03-24T01:49:30;10.00;23.90
18577;DHT22;9418;52.694;13.294;2023-03-24T01:52:00;10.00;26.60
18577;DHT22;9418;52.694;13.294;2023-03-24T01:54:32;10.00;28.20
18577;DHT22;9418;52.694;13.294;2023-03-24T01:57:02;10.00;30.40
18577;DHT22;9418;52.694;13.294;2023-03-24T01:59:34;10.00;32.60
18577;DHT22;9418;52.694;13.294;2023-03-24T02:02:02;10.10;33.20
18577;DHT22;9418;52.694;13.294;2023-03-24T02:04:30;10.10;36.50
18577;DHT22;9418;52.694;13.294;2023-03-24T02:07:00;10.10;39.20
18577;DHT22;9418;52.694;13.294;2023-03-24T02:09:30;10.10;39.40
18577;DHT22;9418;52.694;13.294;2023-03-24T02:11:58;10.00;39.70
18577;DHT22;9418;52.694;13.294;2023-03-24T02:14:25;10.10;39.70
18577;DHT22;9418;52.694;13.294;2023-03-24T02:17:05;10.10;41.80
18577;DHT22;9418;52.694;13.294;2023-03-24T02:19:52;10.10;41.80
18577;DHT22;9418;52.694;13.294;2023-03-24T02:22:45;10.10;44.40
18577;DHT22;9418;52.694;13.294;2023-03-24T02:25:36;10.20;46.80
18577;DHT22;9418;52.694;13.294;2023-03-24T02:28:17;10.20;48.90
18577;DHT22;9418;52.694;13.294;2023-03-24T02:31:06;10.30;52.90
18577;DHT22;9418;52.694;13.294;2023-03-24T02:34:08;10.30;57.10
18577;DHT22;9418;52.694;13.294;2023-03-24T02:36:58;10.30;58.80
18577;DHT22;9418;52.694;13.294;2023-03-24T02:39:37;10.30;60.20
18577;DHT22;9418;52.694;13.294;2023-03-24T02:42:17;10.30;59.60
18577;DHT22;9418;52.694;13.294;2023-03-24T02:44:53;10.40;62.70
18577;DHT22;9418;52.694;13.294;2023-03-24T02:47:26;10.40;63.90
18577;DHT22;9418;52.694;13.294;2023-03-24T02:50:03;10.40;65.00
18577;DHT22;9418;52.694;13.294;2023-03-24T02:52:38;10.50;65.70
18577;DHT22;9418;52.694;13.294;2023-03-24T02:55:11;10.50;71.10
18577;DHT22;9418;52.694;13.294;2023-03-24T02:57:43;10.50;70.60
18577;DHT22;9418;52.694;13.294;2023-03-24T03:00:21;10.60;67.20
18577;DHT22;9418;52.694;13.294;2023-03-24T03:02:54;10.50;65.30
18577;DHT22;9418;52.694;13.294;2023-03-24T03:05:26;10.50;60.60
18577;DHT22;9418;52.694;13.294;2023-03-24T03:07:56;10.60;60.40
18577;DHT22;9418;52.694;13.294;2023-03-24T03:10:29;10.50;58.00
18577;DHT22;9418;52.694;13.294;2023-03-24T03:12:59;10.50;52.80
18577;DHT22;9418;52.694;13.294;2023-03-24T03:15:31;10.50;47.50
18577;DHT22;9418;52.694;13.294;2023-03-24T03:18:05;10.50;47.40
18577;DHT22;9418;52.694;13.294;2023-03-24T03:20:37;10.50;47.90
18577;DHT22;9418;52.694;13.294;2023-03-24T03:23:09;10.50;49.70
18577;DHT22;9418;52.694;13.294;2023-03-24T03:25:42;10.60;51.30
18577;DHT22;9418;52.694;13.294;2023-03-24T03:28:11;10.60;47.80
18577;DHT22;9418;52.694;13.294;2023-03-24T03:30:41;10.60;47.70
18577;DHT22;9418;52.694;13.294;2023-03-24T03:33:13;10.50;43.20
18577;DHT22;9418;52.694;13.294;2023-03-24T03:35:45;10.50;38.70
18577;DHT22;9418;52.694;13.294;2023-03-24T03:38:15;10.50;36.90
18577;DHT22;9418;52.694;13.294;2023-03-24T03:40:49;10.40;30.50
18577;DHT22;9418;52.694;13.294;2023-03-24T03:43:17;10.40;27.30
18577;DHT22;9418;52.694;13.294;2023-03-24T03:45:44;10.30;23.20
18577;DHT22;9418;52.694;13.294;2023-03-24T03:48:10;10.30;20.50
18577;DHT22;9418;52.694;13.294;2023-03-24T03:50:37;10.20;91.30
18577;DHT22;9418;52.694;13.294;2023-03-24T03:53:04;10.20;99.90
18577;DHT22;9418;52.694;13.294;2023-03-24T03:55:31;10.20;99.90
18577;DHT22;9418;52.694;13.294;2023-03-24T03:58:01;10.20;99.90
18577;DHT22;9418;52.694;13.294;2023-03-24T04:00:29;10.20;99.90
18577;DHT22;9418;52.694;13.294;2023-03-24T04:03:10;10.20;99.90
18577;DHT22;9418;52.694;13.294;2023-03-24T04:05:46;10.10;99.90
18577;DHT22;9418;52.694;13.294;2023-03-24T04:08:19;10.20;99.90
18577;DHT22;9418;52.694;13.294;2023-03-24T04:11:21;10.20;99.90
18577;DHT22;9418;52.694;13.294;2023-03-24T04:14:02;10.20;99.90
18577;DHT22;9418;52.694;13.294;2023-03-24T04:16:37;10.20;99.90
18577;DHT22;9418;52.694;13.294;2023-03-24T04:19:14;10.20;99.90
18577;DHT22;9418;52.694;13.294;2023-03-24T04:21:51;10.20;99.90
18577;DHT22;9418;52.694;13.294;2023-03-24T04:24:35;10.20;99.90
18577;DHT22;9418;52.694;13.294;2023-03-24T04:27:08;10.30;99.90
18577;DHT22;9418;52.694;13.294;2023-03-24T04:29:39;10.30;99.90
18577;DHT22;9418;52.694;13.294;2023-03-24T04:32:10;10.20;99.90
18577;DHT22;9418;52.694;13.294;2023-03-24T04:34:46;10.30;99.90
18577;DHT22;9418;52.694;13.294;2023-03-24T04:37:18;10.30;99.90
18577;DHT22;9418;52.694;13.294;2023-03-24T04:39:47;10.40;99.90
18577;DHT22;9418;52.694;13.294;2023-03-24T04:42:18;10.30;99.90
18577;DHT22;9418;52.694;13.294;2023-03-24T04:44:47;10.40;99.90
18577;DHT22;9418;52.694;13.294;2023-03-24T04:47:16;10.40;99.90
18577;DHT22;9418;52.694;13.294;2023-03-24T04:49:44;10.40;99.90
18577;DHT22;9418;52.694;13.294;2023-03-24T04:52:11;10.40;99.90
18577;DHT22;9418;52.694;13.294;2023-03-24T04:54:37;10.40;99.90
18577;DHT22;9418;52.694;13.294;2023-03-24T04:57:04;10.50;99.90
18577;DHT22;9418;52.694;13.294;2023-03-24T04:59:31;10.50;99.90
18577;DHT22;9418;52.694;13.294;2023-03-24T05:02:00;10.50;99.90
18577;DHT22;9418;52.694;13.294;2023-03-24T05:04:28;10.50;99.90
18577;DHT22;9418;52.694;13.294;2023-03-24T05:06:55;10.50;99.90
18577;DHT22;9418;52.694;13.294;2023-03-24T05:09:23;10.60;99.90
18577;DHT22;9418;52.694;13.294;2023-03-24T05:11:50;10.60;99.90
18577;DHT22;9418;52.694;13.294;2023-03-24T05:14:17;10.60;99.90
18577;DHT22;9418;52.694;13.294;2023-03-24T05:16:43;10.60;99.90
18577;DHT22;9418;52.694;13.294;2023-03-24T05:19:11;10.70;99.90
18577;DHT22;9418;52.694;13.294;2023-03-24T05:21:38;10.70;99.90
18577;DHT22;9418;52.694;13.294;2023-03-24T05:24:06;10.70;99.90
18577;DHT22;9418;52.694;13.294;2023-03-24T05:26:33;10.80;99.90
18577;DHT22;9418;52.694;13.294;2023-03-24T05:29:00;10.80;99.90
18577;DHT22;9418;52.694;13.294;2023-03-24T05:31:26;10.80;99.90
18577;DHT22;9418;52.694;13.294;2023-03-24T05:33:53;10.90;87.70
18577;DHT22;9418;52.694;13.294;2023-03-24T05:36:21;10.90;76.50
18577;DHT22;9418;52.694;13.294;2023-03-24T05:38:47;10.90;79.60
18577;DHT22;9418;52.694;13.294;2023-03-24T05:41:14;11.00;21.20
18577;DHT22;9418;52.694;13.294;2023-03-24T05:43:41;11.00;24.00
18577;DHT22;9418;52.694;13.294;2023-03-24T05:46:07;11.10;26.10
18577;DHT22;9418;52.694;13.294;2023-03-24T05:48:34;11.10;27.00
18577;DHT22;9418;52.694;13.294;2023-03-24T05:51:01;11.10;31.60
18577;DHT22;9418;52.694;13.294;2023-03-24T05:53:29;11.20;32.00
18577;DHT22;9418;52.694;13.294;2023-03-24T05:55:56;11.20;34.20
18577;DHT22;9418;52.694;13.294;2023-03-24T05:58:23;11.20;35.60
18577;DHT22;9418;52.694;13.294;2023-03-24T06:00:50;11.20;36.60
18577;DHT22;9418;52.694;13.294;2023-03-24T06:03:16;11.30;37.70
18577;DHT22;9418;52.694;13.294;2023-03-24T06:05:43;11.30;41.20
18577;DHT22;9418;52.694;13.294;2023-03-24T06:08:12;11.40;44.80
18577;DHT22;9418;52.694;13.294;2023-03-24T06:10:40;11.50;48.10
18577;DHT22;9418;52.694;13.294;2023-03-24T06:13:06;11.50;49.30
18577;DHT22;9418;52.694;13.294;2023-03-24T06:15:34;11.50;50.30
18577;DHT22;9418;52.694;13.294;2023-03-24T06:18:00;11.60;52.50
18577;DHT22;9418;52.694;13.294;2023-03-24T06:20:29;11.60;55.50
18577;DHT22;9418;52.694;13.294;2023-03-24T06:22:56;11.60;54.80
18577;DHT22;9418;52.694;13.294;2023-03-24T06:25:24;11.60;54.40
18577;DHT22;9418;52.694;13.294;2023-03-24T06:27:53;11.70;54.90
18577;DHT22;9418;52.694;13.294;2023-03-24T06:30:20;11.70;55.20
18577;DHT22;9418;52.694;13.294;2023-03-24T06:32:46;11.70;54.60
18577;DHT22;9418;52.694;13.294;2023-03-24T06:35:13;11.70;53.80
18577;DHT22;9418;52.694;13.294;2023-03-24T06:37:40;11.70;52.30
18577;DHT22;9418;52.694;13.294;2023-03-24T06:40:08;11.70;52.40
18577;DHT22;9418;52.694;13.294;2023-03-24T06:42:38;11.70;51.10
18577;DHT22;9418;52.694;13.294;2023-03-24T06:45:08;11.70;47.20
18577;DHT22;9418;52.694;13.294;2023-03-24T06:47:35;11.70;40.50
18577;DHT22;9418;52.694;13.294;2023-03-24T06:50:02;11.70;35.70
18577;DHT22;9418;52.694;13.294;2023-03-24T06:52:28;11.60;34.00
18577;DHT22;9418;52.694;13.294;2023-03-24T06:54:55;11.60;31.80
18577;DHT22;9418;52.694;13.294;2023-03-24T06:57:22;11.60;28.20
18577;DHT22;9418;52.694;13.294;2023-03-24T06:59:49;11.60;25.90
18577;DHT22;9418;52.694;13.294;2023-03-24T07:02:17;11.70;24.80
18577;DHT22;9418;52.694;13.294;2023-03-24T07:04:43;11.80;27.90
18577;DHT22;9418;52.694;13.294;2023-03-24T07:07:10;11.80;31.60
18577;DHT22;9418;52.694;13.294;2023-03-24T07:09:37;11.90;32.70
18577;DHT22;9418;52.694;13.294;2023-03-24T07:12:04;11.90;33.00
18577;DHT22;9418;52.694;13.294;2023-03-24T07:14:31;11.90;31.10
18577;DHT22;9418;52.694;13.294;2023-03-24T07:16:58;11.90;30.10
18577;DHT22;9418;52.694;13.294;2023-03-24T07:19:26;12.00;35.10
18577;DHT22;9418;52.694;13.294;2023-03-24T07:21:52;12.00;35.40
18577;DHT22;9418;52.694;13.294;2023-03-24T07:24:19;12.20;39.60
18577;DHT22;9418;52.694;13.294;2023-03-24T07:26:45;12.30;41.60
18577;DHT22;9418;52.694;13.294;2023-03-24T07:29:12;12.40;58.70
18577;DHT22;9418;52.694;13.294;2023-03-24T07:31:39;12.60;57.90
18577;DHT22;9418;52.694;13.294;2023-03-24T07:34:06;12.80;66.80
18577;DHT22;9418;52.694;13.294;2023-03-24T07:36:34;13.00;86.00
18577;DHT22;9418;52.694;13.294;2023-03-24T07:39:01;13.00;88.60
18577;DHT22;9418;52.694;13.294;2023-03-24T07:41:29;13.00;82.50
18577;DHT22;9418;52.694;13.294;2023-03-24T07:43:55;13.00;85.20
18577;DHT22;9418;52.694;13.294;2023-03-24T07:46:22;12.80;74.10
18577;DHT22;9418;52.694;13.294;2023-03-24T07:48:48;12.80;57.50
18577;DHT22;9418;52.694;13.294;2023-03-24T07:51:15;12.70;54.90
18577;DHT22;9418;52.694;13.294;2023-03-24T07:53:45;12.60;41.50
18577;DHT22;9418;52.694;13.294;2023-03-24T07:56:12;12.50;41.60
18577;DHT22;9418;52.694;13.294;2023-03-24T07:58:39;12.40;40.20
18577;DHT22;9418;52.694;13.294;2023-03-24T08:01:05;12.30;31.50
18577;DHT22;9418;52.694;13.294;2023-03-24T08:03:34;12.20;21.90
18577;DHT22;9418;52.694;13.294;2023-03-24T08:06:00;12.20;79.20
18577;DHT22;9418;52.694;13.294;2023-03-24T08:08:27;12.20;99.90
18577;DHT22;9418;52.694;13.294;2023-03-24T08:10:55;12.10;99.90
18577;DHT22;9418;52.694;13.294;2023-03-24T08:13:22;12.10;99.90
18577;DHT22;9418;52.694;13.294;2023-03-24T08:15:48;12.20;99.90
18577;DHT22;9418;52.694;13.294;2023-03-24T08:18:15;12.20;99.90
18577;DHT22;9418;52.694;13.294;2023-03-24T08:20:42;12.20;86.60
18577;DHT22;9418;52.694;13.294;2023-03-24T08:23:08;12.20;20.20
18577;DHT22;9418;52.694;13.294;2023-03-24T08:25:35;12.30;26.60
18577;DHT22;9418;52.694;13.294;2023-03-24T08:28:03;12.30;29.10
18577;DHT22;9418;52.694;13.294;2023-03-24T08:30:31;12.30;38.40
18577;DHT22;9418;52.694;13.294;2023-03-24T08:32:58;12.40;40.70
18577;DHT22;9418;52.694;13.294;2023-03-24T08:35:27;12.40;43.10
18577;DHT22;9418;52.694;13.294;2023-03-24T08:37:54;12.50;52.30
18577;DHT22;9418;52.694;13.294;2023-03-24T08:40:22;12.60;73.10
18577;DHT22;9418;52.694;13.294;2023-03-24T08:42:51;12.70;85.00
18577;DHT22;9418;52.694;13.294;2023-03-24T08:45:21;12.70;77.20
18577;DHT22;9418;52.694;13.294;2023-03-24T08:47:50;12.80;87.70
18577;DHT22;9418;52.694;13.294;2023-03-24T08:50:18;12.90;89.50
18577;DHT22;9418;52.694;13.294;2023-03-24T08:52:45;12.90;83.50
18577;DHT22;9418;52.694;13.294;2023-03-24T08:55:12;13.00;99.90
18577;DHT22;9418;52.694;13.294;2023-03-24T08:57:39;13.00;96.80
18577;DHT22;9418;52.694;13.294;2023-03-24T09:00:07;13.00;97.70
18577;DHT22;9418;52.694;13.294;2023-03-24T09:02:39;13.10;99.90
18577;DHT22;9418;52.694;13.294;2023-03-24T09:05:06;13.20;99.90
18577;DHT22;9418;52.694;13.294;2023-03-24T09:07:33;13.20;99.90
18577;DHT22;9418;52.694;13.294;2023-03-24T09:10:01;13.30;99.90
18577;DHT22;9418;52.694;13.294;2023-03-24T09:12:28;13.30;99.90
18577;DHT22;9418;52.694;13.294;2023-03-24T09:14:54;13.40;99.90
18577;DHT22;9418;52.694;13.294;2023-03-24T09:17:21;13.40;99.90
18577;DHT22;9418;52.694;13.294;2023-03-24T09:19:49;13.50;99.90
18577;DHT22;9418;52.694;13.294;2023-03-24T09:22:15;13.60;99.90
18577;DHT22;9418;52.694;13.294;2023-03-24T09:24:42;13.60;99.90
18577;DHT22;9418;52.694;13.294;2023-03-24T09:27:09;13.70;99.90
18577;DHT22;9418;52.694;13.294;2023-03-24T09:29:36;13.80;99.90
18577;DHT22;9418;52.694;13.294;2023-03-24T09:32:03;13.80;99.90
18577;DHT22;9418;52.694;13.294;2023-03-24T09:34:29;13.90;99.90
18577;DHT22;9418;52.694;13.294;2023-03-24T09:36:59;13.90;99.90
18577;DHT22;9418;52.694;13.294;2023-03-24T09:39:26;14.00;99.90
18577;DHT22;9418;52.694;13.294;2023-03-24T09:41:54;14.10;99.90
18577;DHT22;9418;52.694;13.294;2023-03-24T09:44:25;14.20;99.90
18577;DHT22;9418;52.694;13.294;2023-03-24T09:46:55;14.20;99.90
18577;DHT22;9418;52.694;13.294;2023-03-24T09:49:25;14.30;99.90
18577;DHT22;9418;52.694;13.294;2023-03-24T09:51:54;14.40;99.90
18577;DHT22;9418;52.694;13.294;2023-03-24T09:54:29;14.40;99.90
18577;DHT22;9418;52.694;13.294;2023-03-24T09:56:57;14.40;99.90
18577;DHT22;9418;52.694;13.294;2023-03-24T09:59:31;14.50;99.90
18577;DHT22;9418;52.694;13.294;2023-03-24T10:02:00;14.70;99.90
18577;DHT22;9418;52.694;13.294;2023-03-24T10:04:27;14.70;99.90
18577;DHT22;9418;52.694;13.294;2023-03-24T10:06:59;14.70;99.90
18577;DHT22;9418;52.694;13.294;2023-03-24T10:09:30;14.60;99.90
18577;DHT22;9418;52.694;13.294;2023-03-24T10:12:14;14.70;99.90
18577;DHT22;9418;52.694;13.294;2023-03-24T10:14:49;14.70;99.90
18577;DHT22;9418;52.694;13.294;2023-03-24T10:17:24;14.60;99.90
18577;DHT22;9418;52.694;13.294;2023-03-24T10:19:57;14.70;99.90
18577;DHT22;9418;52.694;13.294;2023-03-24T10:22:29;14.80;99.90
18577;DHT22;9418;52.694;13.294;2023-03-24T10:25:05;14.80;99.90
18577;DHT22;9418;52.694;13.294;2023-03-24T10:27:36;15.00;99.90
18577;DHT22;9418;52.694;13.294;2023-03-24T10:30:12;15.20;64.60
18577;DHT22;9418;52.694;13.294;2023-03-24T10:32:41;15.50;95.70
18577;DHT22;9418;52.694;13.294;2023-03-24T10:35:14;15.70;99.90
18577;DHT22;9418;52.694;13.294;2023-03-24T10:37:43;16.20;99.90
18577;DHT22;9418;52.694;13.294;2023-03-24T10:40:17;16.40;99.90
18577;DHT22;9418;52.694;13.294;2023-03-24T10:42:46;16.20;99.90
18577;DHT22;9418;52.694;13.294;2023-03-24T10:45:23;15.90;99.90
18577;DHT22;9418;52.694;13.294;2023-03-24T10:47:52;15.70;99.90
18577;DHT22;9418;52.694;13.294;2023-03-24T10:50:23;15.50;99.90
18577;DHT22;9418;52.694;13.294;2023-03-24T10:52:50;15.40;99.90
18577;DHT22;9418;52.694;13.294;2023-03-24T10:55:20;15.40;99.90
18577;DHT22;9418;52.694;13.294;2023-03-24T10:57:49;15.30;99.90
18577;DHT22;9418;52.694;13.294;2023-03-24T11:00:21;15.30;99.90
18577;DHT22;9418;52.694;13.294;2023-03-24T11:02:56;15.20;99.90
18577;DHT22;9418;52.694;13.294;2023-03-24T11:05:27;15.20;99.90
18577;DHT22;9418;52.694;13.294;2023-03-24T11:07:59;15.30;99.90
18577;DHT22;9418;52.694;13.294;2023-03-24T11:10:36;15.40;99.90
18577;DHT22;9418;52.694;13.294;2023-03-24T11:13:03;15.40;99.90
18577;DHT22;9418;52.694;13.294;2023-03-24T11:15:33;15.50;99.90
18577;DHT22;9418;52.694;13.294;2023-03-24T11:18:07;15.40;99.90
18577;DHT22;9418;52.694;13.294;2023-03-24T11:20:43;15.60;95.70
18577;DHT22;9418;52.694;13.294;2023-03-24T11:23:19;15.80;35.10
18577;DHT22;9418;52.694;13.294;2023-03-24T11:25:52;16.00;53.40
18577;DHT22;9418;52.694;13.294;2023-03-24T11:28:27;16.50;74.80
18577;DHT22;9418;52.694;13.294;2023-03-24T11:30:54;16.70;83.20
18577;DHT22;9418;52.694;13.294;2023-03-24T11:33:22;16.70;99.90
18577;DHT22;9418;52.694;13.294;2023-03-24T11:35:51;16.80;99.90
18577;DHT22;9418;52.694;13.294;2023-03-24T11:38:20;16.90;99.90
18577;DHT22;9418;52.694;13.294;2023-03-24T11:40:56;17.00;99.90
18577;DHT22;9418;52.694;13.294;2023-03-24T11:43:24;17.10;99.90
18577;DHT22;9418;52.694;13.294;2023-03-24T11:45:57;17.10;99.90
18577;DHT22;9418;52.694;13.294;2023-03-24T11:48:29;17.00;99.90
18577;DHT22;9418;52.694;13.294;2023-03-24T11:50:58;16.70;99.90
18577;DHT22;9418;52.694;13.294;2023-03-24T11:53:29;16.80;99.90
18577;DHT22;9418;52.694;13.294;2023-03-24T11:56:03;16.70;99.90
18577;DHT22;9418;52.694;13.294;2023-03-24T11:58:35;16.90;99.90
18577;DHT22;9418;52.694;13.294;2023-03-24T12:01:05;17.10;99.90
18577;DHT22;9418;52.694;13.294;2023-03-24T12:06:53;16.80;99.90
18577;DHT22;9418;52.694;13.294;2023-03-24T12:09:25;16.70;99.90
18577;DHT22;9418;52.694;13.294;2023-03-24T12:12:11;16.50;99.90
18577;DHT22;9418;52.694;13.294;2023-03-24T12:14:48;16.40;99.90
18577;DHT22;9418;52.694;13.294;2023-03-24T12:17:20;16.30;99.90
18577;DHT22;9418;52.694;13.294;2023-03-24T12:20:15;16.30;99.90
18577;DHT22;9418;52.694;13.294;2023-03-24T12:22:54;16.40;99.90
18577;DHT22;9418;52.694;13.294;2023-03-24T12:25:29;16.40;99.90
18577;DHT22;9418;52.694;13.294;2023-03-24T12:28:11;16.40;99.90
18577;DHT22;9418;52.694;13.294;2023-03-24T12:30:46;16.20;99.90
18577;DHT22;9418;52.694;13.294;2023-03-24T12:33:29;16.20;99.90
18577;DHT22;9418;52.694;13.294;2023-03-24T12:36:12;16.20;99.90
18577;DHT22;9418;52.694;13.294;2023-03-24T12:38:55;16.10;99.90
18577;DHT22;9418;52.694;13.294;2023-03-24T12:41:47;16.10;99.90
18577;DHT22;9418;52.694;13.294;2023-03-24T12:47:28;15.90;99.90
18577;DHT22;9418;52.694;13.294;2023-03-24T12:50:07;15.90;99.90
18577;DHT22;9418;52.694;13.294;2023-03-24T12:52:49;15.80;99.90
18577;DHT22;9418;52.694;13.294;2023-03-24T12:55:22;15.70;99.90
18577;DHT22;9418;52.694;13.294;2023-03-24T12:57:55;15.40;99.90
18577;DHT22;9418;52.694;13.294;2023-03-24T13:00:27;15.40;99.90
18577;DHT22;9418;52.694;13.294;2023-03-24T13:02:57;15.30;99.90
18577;DHT22;9418;52.694;13.294;2023-03-24T13:05:28;15.20;99.90
18577;DHT22;9418;52.694;13.294;2023-03-24T13:08:03;15.10;99.90
18577;DHT22;9418;52.694;13.294;2023-03-24T13:10:35;15.10;99.90
18577;DHT22;9418;52.694;13.294;2023-03-24T13:13:11;15.10;99.90
18577;DHT22;9418;52.694;13.294;2023-03-24T13:15:43;15.20;99.90
18577;DHT22;9418;52.694;13.294;2023-03-24T13:18:19;15.40;99.90
18577;DHT22;9418;52.694;13.294;2023-03-24T13:20:53;15.60;99.90
18577;DHT22;9418;52.694;13.294;2023-03-24T13:23:33;15.60;99.90
18577;DHT22;9418;52.694;13.294;2023-03-24T13:26:08;15.60;99.90
18577;DHT22;9418;52.694;13.294;2023-03-24T13:28:39;15.40;99.90
18577;DHT22;9418;52.694;13.294;2023-03-24T13:31:11;15.30;99.90
18577;DHT22;9418;52.694;13.294;2023-03-24T13:33:39;15.40;99.90
18577;DHT22;9418;52.694;13.294;2023-03-24T13:36:22;15.40;99.90
18577;DHT22;9418;52.694;13.294;2023-03-24T13:38:53;15.30;99.90
18577;DHT22;9418;52.694;13.294;2023-03-24T13:41:23;15.40;99.90
18577;DHT22;9418;52.694;13.294;2023-03-24T13:43:57;15.40;99.90
18577;DHT22;9418;52.694;13.294;2023-03-24T13:46:27;15.40;99.90
18577;DHT22;9418;52.694;13.294;2023-03-24T13:48:55;15.20;99.90
18577;DHT22;9418;52.694;13.294;2023-03-24T13:51:25;15.10;99.90
18577;DHT22;9418;52.694;13.294;2023-03-24T13:53:54;15.00;99.90
18577;DHT22;9418;52.694;13.294;2023-03-24T13:56:26;15.00;99.90
18577;DHT22;9418;52.694;13.294;2023-03-24T13:59:24;14.80;99.90
18577;DHT22;9418;52.694;13.294;2023-03-24T14:02:19;14.80;99.90
18577;DHT22;9418;52.694;13.294;2023-03-24T14:04:47;14.70;99.90
18577;DHT22;9418;52.694;13.294;2023-03-24T14:07:34;14.70;99.90
18577;DHT22;9418;52.694;13.294;2023-03-24T14:10:28;14.60;99.90
18577;DHT22;9418;52.694;13.294;2023-03-24T14:13:00;14.50;99.90
18577;DHT22;9418;52.694;13.294;2023-03-24T14:15:30;14.40;99.90
18577;DHT22;9418;52.694;13.294;2023-03-24T14:18:13;14.40;99.90
18577;DHT22;9418;52.694;13.294;2023-03-24T14:20:55;14.30;99.90
18577;DHT22;9418;52.694;13.294;2023-03-24T14:23:32;14.30;99.90
18577;DHT22;9418;52.694;13.294;2023-03-24T14:25:59;14.30;99.90
18577;DHT22;9418;52.694;13.294;2023-03-24T14:28:28;14.30;99.90
18577;DHT22;9418;52.694;13.294;2023-03-24T14:31:02;14.20;99.90
18577;DHT22;9418;52.694;13.294;2023-03-24T14:33:39;14.30;99.90
18577;DHT22;9418;52.694;13.294;2023-03-24T14:36:07;14.30;99.90
18577;DHT22;9418;52.694;13.294;2023-03-24T14:38:40;14.30;99.90
18577;DHT22;9418;52.694;13.294;2023-03-24T14:41:12;14.40;99.90
18577;DHT22;9418;52.694;13.294;2023-03-24T14:43:56;14.60;99.90
18577;DHT22;9418;52.694;13.294;2023-03-24T14:46:37;14.80;99.90
18577;DHT22;9418;52.694;13.294;2023-03-24T14:49:14;14.80;99.90
18577;DHT22;9418;52.694;13.294;2023-03-24T14:51:46;14.70;99.90
18577;DHT22;9418;52.694;13.294;2023-03-24T14:54:19;14.70;99.90
18577;DHT22;9418;52.694;13.294;2023-03-24T14:56:50;15.00;99.90
18577;DHT22;9418;52.694;13.294;2023-03-24T14:59:28;15.20;99.90
18577;DHT22;9418;52.694;13.294;2023-03-24T15:02:00;15.40;99.90
18577;DHT22;9418;52.694;13.294;2023-03-24T15:04:30;15.60;99.90
18577;DHT22;9418;52.694;13.294;2023-03-24T15:07:02;15.70;99.90
18577;DHT22;9418;52.694;13.294;2023-03-24T15:09:29;16.10;99.90
18577;DHT22;9418;52.694;13.294;2023-03-24T15:11:58;16.20;99.90
18577;DHT22;9418;52.694;13.294;2023-03-24T15:14:25;16.40;99.90
18577;DHT22;9418;52.694;13.294;2023-03-24T15:16:55;15.90;99.90
18577;DHT22;9418;52.694;13.294;2023-03-24T15:19:25;16.00;99.90
18577;DHT22;9418;52.694;13.294;2023-03-24T15:21:59;16.40;99.90
18577;DHT22;9418;52.694;13.294;2023-03-24T15:24:29;16.20;99.90
18577;DHT22;9418;52.694;13.294;2023-03-24T15:27:21;15.90;99.90
18577;DHT22;9418;52.694;13.294;2023-03-24T15:29:53;16.10;99.90
18577;DHT22;9418;52.694;13.294;2023-03-24T15:32:22;16.40;99.90
18577;DHT22;9418;52.694;13.294;2023-03-24T15:34:52;16.30;99.90
18577;DHT22;9418;52.694;13.294;2023-03-24T15:37:22;16.20;99.90
18577;DHT22;9418;52.694;13.294;2023-03-24T15:39:50;15.80;99.90
18577;DHT22;9418;52.694;13.294;2023-03-24T15:42:20;15.70;99.90
18577;DHT22;9418;52.694;13.294;2023-03-24T15:44:47;15.50;99.90
18577;DHT22;9418;52.694;13.294;2023-03-24T15:47:18;15.40;99.90
18577;DHT22;9418;52.694;13.294;2023-03-24T15:49:48;15.40;99.90
18577;DHT22;9418;52.694;13.294;2023-03-24T15:52:28;15.20;99.90
18577;DHT22;9418;52.694;13.294;2023-03-24T15:54:58;15.10;99.90
18577;DHT22;9418;52.694;13.294;2023-03-24T15:57:26;15.10;99.90
18577;DHT22;9418;52.694;13.294;2023-03-24T16:00:03;15.00;99.90
18577;DHT22;9418;52.694;13.294;2023-03-24T16:02:35;15.00;99.90